createdAt,value
2023-03-15T00:01:56.444Z,4.61
2023-03-15T00:04:26.484Z,4.62
2023-03-15T00:06:56.591Z,4.61
2023-03-15T00:09:26.408Z,4.57
2023-03-15T00:11:56.947Z,4.51
2023-03-15T00:14:29.475Z,4.50
2023-03-15T00:16:59.305Z,4.47
2023-03-15T00:19:29.140Z,4.47
2023-03-15T00:21:59.018Z,4.44
2023-03-15T00:24:28.891Z,4.43
2023-03-15T00:26:58.680Z,4.46
2023-03-15T00:29:34.406Z,4.50
2023-03-15T00:32:07.296Z,4.53
2023-03-15T00:34:37.171Z,4.57
2023-03-15T00:37:06.967Z,4.59
2023-03-15T00:39:37.975Z,4.50
2023-03-15T00:42:08.167Z,4.41
2023-03-15T00:44:40.761Z,4.38
2023-03-15T00:47:10.925Z,4.35
2023-03-15T00:49:41.044Z,4.33
2023-03-15T00:52:12.697Z,4.34
2023-03-15T00:54:42.495Z,4.38
2023-03-15T00:57:12.455Z,4.42
2023-03-15T00:59:45.101Z,4.46
2023-03-15T01:02:15.479Z,4.47
2023-03-15T01:04:46.827Z,4.46
2023-03-15T01:07:16.758Z,4.49
2023-03-15T01:09:48.558Z,4.54
2023-03-15T01:12:18.586Z,4.60
2023-03-15T01:14:51.026Z,4.65
2023-03-15T01:17:20.832Z,4.64
2023-03-15T01:19:51.689Z,4.62
2023-03-15T01:22:21.585Z,4.58
2023-03-15T01:24:51.397Z,4.53
2023-03-15T01:27:21.277Z,4.49
2023-03-15T01:29:56.222Z,4.49
2023-03-15T01:32:26.153Z,4.51
2023-03-15T01:34:56.038Z,4.51
2023-03-15T01:37:26.725Z,4.53
2023-03-15T01:39:56.592Z,4.54
2023-03-15T01:42:26.442Z,4.57
2023-03-15T01:45:03.968Z,4.59
2023-03-15T01:47:33.814Z,4.59
2023-03-15T01:50:09.086Z,4.62
2023-03-15T01:52:42.267Z,4.64
2023-03-15T01:55:16.345Z,4.68
2023-03-15T01:57:49.647Z,4.70
2023-03-15T02:00:23.544Z,4.67
2023-03-15T02:02:58.562Z,4.66
2023-03-15T02:05:32.900Z,4.63
2023-03-15T02:08:03.714Z,4.62
2023-03-15T02:10:38.330Z,4.60
2023-03-15T02:13:10.284Z,4.61
2023-03-15T02:15:46.993Z,4.59
2023-03-15T02:18:18.076Z,4.56
2023-03-15T02:20:57.038Z,4.52
2023-03-15T02:23:30.345Z,4.49
2023-03-15T02:26:10.132Z,4.47
2023-03-15T02:28:44.075Z,4.47
2023-03-15T02:31:14.057Z,4.46
2023-03-15T02:33:47.812Z,4.45
2023-03-15T02:36:21.695Z,4.46
2023-03-15T02:38:52.673Z,4.44
2023-03-15T02:41:29.540Z,4.44
2023-03-15T02:44:09.766Z,4.41
2023-03-15T02:46:40.775Z,4.39
2023-03-15T02:49:11.379Z,4.36
2023-03-15T02:51:41.228Z,4.35
2023-03-15T02:54:11.034Z,4.34
2023-03-15T02:56:41.209Z,4.34
2023-03-15T02:59:14.154Z,4.36
2023-03-15T03:01:46.070Z,4.36
2023-03-15T03:04:15.869Z,4.36
2023-03-15T03:06:47.521Z,4.37
2023-03-15T03:09:17.278Z,4.33
2023-03-15T03:11:47.219Z,4.28
2023-03-15T03:14:19.677Z,4.27
2023-03-15T03:16:50.241Z,4.25
2023-03-15T03:19:25.749Z,4.23
2023-03-15T03:21:56.894Z,4.21
2023-03-15T03:24:27.339Z,4.17
2023-03-15T03:26:58.713Z,4.12
2023-03-15T03:29:31.142Z,4.09
2023-03-15T03:32:01.046Z,4.06
2023-03-15T03:34:31.673Z,4.05
2023-03-15T03:37:01.541Z,4.01
2023-03-15T03:39:31.434Z,4.00
2023-03-15T03:42:01.207Z,3.97
2023-03-15T03:44:33.732Z,3.96
2023-03-15T03:47:03.589Z,3.97
2023-03-15T03:49:33.401Z,3.98
2023-03-15T03:52:03.494Z,4.01
2023-03-15T03:54:33.539Z,4.00
2023-03-15T03:57:06.425Z,4.00
2023-03-15T03:59:38.805Z,3.99
2023-03-15T04:02:08.862Z,3.97
2023-03-15T04:04:41.418Z,3.96
2023-03-15T04:07:12.934Z,3.94
2023-03-15T04:09:42.694Z,3.94
2023-03-15T04:12:13.136Z,3.94
2023-03-15T04:14:45.718Z,3.94
2023-03-15T04:17:15.519Z,3.95
2023-03-15T04:19:47.166Z,3.97
2023-03-15T04:22:17.352Z,4.00
2023-03-15T04:24:50.794Z,4.03
2023-03-15T04:27:22.873Z,4.06
2023-03-15T04:29:56.205Z,4.09
2023-03-15T04:32:26.038Z,4.12
2023-03-15T04:34:56.094Z,4.16
2023-03-15T04:37:28.907Z,4.19
2023-03-15T04:39:58.810Z,4.20
2023-03-15T04:42:29.016Z,4.22
2023-03-15T04:45:04.599Z,4.21
2023-03-15T04:47:34.468Z,4.22
2023-03-15T04:50:04.354Z,4.23
2023-03-15T04:52:34.187Z,4.24
2023-03-15T04:55:04.312Z,4.26
2023-03-15T04:57:37.171Z,4.29
2023-03-15T05:00:13.133Z,4.32
2023-03-15T05:02:43.240Z,4.34
2023-03-15T05:05:14.748Z,4.31
2023-03-15T05:07:44.554Z,4.27
2023-03-15T05:10:16.180Z,4.25
2023-03-15T05:12:45.994Z,4.23
2023-03-15T05:15:18.665Z,4.18
2023-03-15T05:17:49.786Z,4.11
2023-03-15T05:20:20.068Z,4.06
2023-03-15T05:22:49.932Z,4.01
2023-03-15T05:25:22.825Z,3.96
2023-03-15T05:27:53.046Z,3.94
2023-03-15T05:30:25.543Z,3.90
2023-03-15T05:32:55.462Z,3.86
2023-03-15T05:35:26.986Z,3.80
2023-03-15T05:37:58.643Z,3.73
2023-03-15T05:40:30.069Z,3.65
2023-03-15T05:42:59.992Z,3.62
2023-03-15T05:45:34.795Z,3.57
2023-03-15T05:48:04.644Z,3.55
2023-03-15T05:50:34.985Z,3.50
2023-03-15T05:53:05.018Z,3.46
2023-03-15T05:55:36.278Z,3.44
2023-03-15T05:58:06.084Z,3.41
2023-03-15T06:00:38.435Z,3.40
2023-03-15T06:03:09.803Z,3.35
2023-03-15T06:05:39.754Z,3.37
2023-03-15T06:08:09.558Z,3.35
2023-03-15T06:10:39.449Z,3.36
2023-03-15T06:13:09.496Z,3.36
2023-03-15T06:15:41.862Z,3.38
2023-03-15T06:18:11.672Z,3.39
2023-03-15T06:20:41.496Z,3.42
2023-03-15T06:23:11.303Z,3.44
2023-03-15T06:25:41.053Z,3.44
2023-03-15T06:28:10.887Z,3.44
2023-03-15T06:30:43.887Z,3.44
2023-03-15T06:33:13.841Z,3.45
2023-03-15T06:35:47.320Z,3.44
2023-03-15T06:38:17.231Z,3.46
2023-03-15T06:40:47.220Z,3.46
2023-03-15T06:43:19.667Z,3.54
2023-03-15T06:45:53.698Z,3.60
2023-03-15T06:48:23.511Z,3.65
2023-03-15T06:50:53.355Z,3.69
2023-03-15T06:53:23.469Z,3.75
2023-03-15T06:55:53.519Z,3.81
2023-03-15T06:58:23.301Z,3.86
2023-03-15T07:00:57.253Z,3.92
2023-03-15T07:03:27.203Z,3.96
2023-03-15T07:05:57.020Z,3.98
2023-03-15T07:08:28.103Z,4.02
2023-03-15T07:10:57.924Z,4.06
2023-03-15T07:13:27.732Z,4.09
2023-03-15T07:16:00.273Z,4.14
2023-03-15T07:18:54.421Z,4.21
2023-03-15T07:21:42.112Z,4.28
2023-03-15T07:24:13.676Z,4.33
2023-03-15T07:26:43.788Z,4.43
2023-03-15T07:29:14.914Z,4.50
2023-03-15T07:31:47.592Z,4.62
2023-03-15T07:34:17.535Z,4.71
2023-03-15T07:36:47.340Z,4.83
2023-03-15T07:39:17.700Z,4.95
2023-03-15T07:41:47.759Z,5.09
2023-03-15T07:44:18.035Z,5.23
2023-03-15T07:46:50.552Z,5.42
2023-03-15T07:49:21.265Z,5.59
2023-03-15T07:51:51.669Z,5.75
2023-03-15T07:54:24.251Z,5.90
2023-03-15T07:56:54.036Z,6.03
2023-03-15T07:59:23.850Z,6.18
2023-03-15T08:01:56.232Z,6.33
2023-03-15T08:04:26.021Z,6.46
2023-03-15T08:06:55.791Z,6.59
2023-03-15T08:09:25.605Z,6.74
2023-03-15T08:11:55.374Z,6.90
2023-03-15T08:14:25.157Z,7.05
2023-03-15T08:16:57.655Z,7.20
2023-03-15T08:19:27.681Z,7.32
2023-03-15T08:21:57.582Z,7.46
2023-03-15T08:24:30.207Z,7.58
2023-03-15T08:29:53.412Z,7.85
2023-03-15T08:32:26.048Z,7.98
2023-03-15T08:34:56.055Z,8.06
2023-03-15T08:37:25.930Z,8.13
2023-03-15T08:40:01.086Z,8.22
2023-03-15T08:42:31.184Z,8.32
2023-03-15T08:45:02.300Z,8.36
2023-03-15T08:47:35.488Z,8.37
2023-03-15T08:50:05.921Z,8.42
2023-03-15T08:52:36.493Z,8.47
2023-03-15T08:55:06.818Z,8.56
2023-03-15T08:57:36.682Z,8.64
2023-03-15T09:00:10.603Z,8.70
2023-03-15T09:02:43.069Z,8.78
2023-03-15T09:05:13.796Z,8.77
2023-03-15T09:07:44.266Z,8.73
2023-03-15T09:10:16.170Z,8.76
2023-03-15T09:12:46.466Z,8.86
2023-03-15T09:15:17.157Z,8.89
2023-03-15T09:17:51.690Z,8.90
2023-03-15T09:20:24.240Z,8.93
2023-03-15T09:22:55.266Z,8.98
2023-03-15T09:25:25.846Z,9.01
2023-03-15T09:27:56.395Z,9.03
2023-03-15T09:30:26.828Z,9.02
2023-03-15T09:32:59.262Z,9.03
2023-03-15T09:35:29.279Z,9.04
2023-03-15T09:37:59.127Z,9.07
2023-03-15T09:40:31.172Z,9.12
2023-03-15T09:43:16.256Z,9.17
2023-03-15T09:46:05.919Z,9.21
2023-03-15T09:48:43.773Z,9.19
2023-03-15T09:51:19.224Z,9.26
2023-03-15T09:53:55.438Z,9.23
2023-03-15T09:56:30.627Z,9.21
2023-03-15T09:59:03.155Z,9.26
2023-03-15T10:01:35.711Z,9.24
2023-03-15T10:04:13.204Z,9.26
2023-03-15T10:06:46.269Z,9.27
2023-03-15T10:09:26.890Z,9.27
2023-03-15T10:12:05.891Z,9.28
2023-03-15T10:14:59.806Z,9.29
2023-03-15T10:17:40.823Z,9.27
2023-03-15T10:20:19.036Z,9.31
2023-03-15T10:22:55.777Z,9.40
2023-03-15T10:25:28.722Z,9.44
2023-03-15T10:28:02.519Z,9.46
2023-03-15T10:30:34.456Z,9.44
2023-03-15T10:33:06.303Z,9.41
2023-03-15T10:35:38.808Z,9.38
2023-03-15T10:38:18.270Z,9.36
2023-03-15T10:40:54.222Z,9.37
2023-03-15T10:43:26.220Z,9.42
2023-03-15T10:46:05.143Z,9.43
2023-03-15T10:48:37.719Z,9.48
2023-03-15T10:51:21.873Z,9.48
2023-03-15T10:53:56.763Z,9.49
2023-03-15T10:56:29.165Z,9.46
2023-03-15T10:59:12.425Z,9.44
2023-03-15T11:01:44.036Z,9.43
2023-03-15T11:04:22.245Z,9.44
2023-03-15T11:07:04.356Z,9.49
2023-03-15T11:09:43.613Z,9.49
2023-03-15T11:12:19.593Z,9.50
2023-03-15T11:14:52.639Z,9.48
2023-03-15T11:17:25.892Z,9.46
2023-03-15T11:20:01.002Z,9.43
2023-03-15T11:22:35.436Z,9.44
2023-03-15T11:25:05.871Z,9.46
2023-03-15T11:27:35.774Z,9.48
2023-03-15T11:30:05.952Z,9.46
2023-03-15T11:32:36.168Z,9.50
2023-03-15T11:35:09.466Z,9.54
2023-03-15T11:37:49.032Z,9.61
2023-03-15T11:40:23.934Z,9.64
2023-03-15T11:42:59.076Z,9.67
2023-03-15T11:45:37.265Z,9.70
2023-03-15T11:48:14.414Z,9.70
2023-03-15T11:50:44.380Z,9.72
2023-03-15T11:53:20.070Z,9.75
2023-03-15T11:55:53.721Z,9.75
2023-03-15T11:58:32.483Z,9.77
2023-03-15T12:01:05.023Z,9.76
2023-03-15T12:03:46.952Z,9.77
2023-03-15T12:06:39.128Z,9.80
2023-03-15T12:09:38.863Z,9.80
2023-03-15T12:12:38.468Z,9.81
2023-03-15T12:15:18.562Z,9.81
2023-03-15T12:17:52.706Z,9.82
2023-03-15T12:20:30.236Z,9.86
2023-03-15T12:23:21.132Z,9.86
2023-03-15T12:25:56.544Z,9.87
2023-03-15T12:28:33.352Z,9.90
2023-03-15T12:31:06.137Z,9.93
2023-03-15T12:33:46.420Z,9.96
2023-03-15T12:36:22.944Z,9.99
2023-03-15T12:39:05.092Z,10.01
2023-03-15T12:41:41.017Z,9.97
2023-03-15T12:44:40.821Z,9.87
2023-03-15T12:47:11.774Z,9.81
2023-03-15T12:49:44.541Z,9.81
2023-03-15T12:52:37.194Z,9.83
2023-03-15T13:06:17.412Z,9.99
2023-03-15T13:08:53.616Z,9.97
2023-03-15T13:11:32.276Z,9.95
2023-03-15T13:14:26.103Z,9.84
2023-03-15T13:17:12.445Z,9.75
2023-03-15T13:19:57.520Z,9.75
2023-03-15T13:22:56.634Z,9.80
2023-03-15T13:49:43.404Z,9.97
2023-03-15T13:52:15.534Z,9.95
2023-03-15T13:54:50.613Z,9.96
2023-03-15T13:57:22.842Z,10.00
2023-03-15T13:59:55.769Z,9.96
2023-03-15T14:02:29.875Z,9.95
2023-03-15T14:05:09.877Z,9.92
2023-03-15T14:07:41.813Z,9.90
2023-03-15T14:10:33.992Z,9.92
2023-03-15T14:13:24.171Z,9.93
2023-03-15T14:15:59.895Z,9.88
2023-03-15T14:18:34.579Z,9.90
2023-03-15T14:21:10.931Z,9.89
2023-03-15T14:23:43.876Z,9.86
2023-03-15T14:26:21.738Z,9.80
2023-03-15T14:29:03.200Z,9.73
2023-03-15T14:31:35.722Z,9.70
2023-03-15T14:34:13.570Z,9.71
2023-03-15T14:36:47.964Z,9.74
2023-03-15T14:39:23.025Z,9.72
2023-03-15T14:41:52.795Z,9.69
2023-03-15T14:44:28.988Z,9.68
2023-03-15T14:46:59.240Z,9.68
2023-03-15T14:49:30.819Z,9.68
2023-03-15T14:52:06.419Z,9.68
2023-03-15T14:54:36.980Z,9.62
2023-03-15T14:57:06.932Z,9.60
2023-03-15T14:59:36.672Z,9.61
2023-03-15T15:02:08.057Z,9.61
2023-03-15T15:04:39.651Z,9.60
2023-03-15T15:07:13.739Z,9.54
2023-03-15T15:09:49.482Z,9.50
2023-03-15T15:12:19.556Z,9.44
2023-03-15T15:14:49.349Z,9.41
2023-03-15T15:17:19.859Z,9.37
2023-03-15T15:19:49.600Z,9.32
2023-03-15T15:22:22.702Z,9.29
2023-03-15T15:24:52.519Z,9.27
2023-03-15T15:27:22.366Z,9.27
2023-03-15T15:29:52.459Z,9.27
2023-03-15T15:32:22.237Z,9.25
2023-03-15T15:34:54.986Z,9.24
2023-03-15T15:37:27.839Z,9.22
2023-03-15T15:39:57.971Z,9.14
2023-03-15T15:42:27.769Z,9.09
2023-03-15T15:44:57.529Z,9.07
2023-03-15T15:47:27.297Z,9.01
2023-03-15T15:49:57.020Z,8.98
2023-03-15T15:52:29.454Z,8.95
2023-03-15T15:55:00.649Z,8.91
2023-03-15T15:57:31.330Z,8.92
2023-03-15T16:00:01.501Z,8.93
2023-03-15T16:02:31.365Z,8.93
2023-03-15T16:05:01.164Z,8.92
2023-03-15T16:07:33.584Z,8.91
2023-03-15T16:10:03.730Z,8.89
2023-03-15T16:12:33.682Z,8.87
2023-03-15T16:15:03.865Z,8.84
2023-03-15T16:17:33.617Z,8.83
2023-03-15T16:20:09.350Z,8.79
2023-03-15T16:22:45.616Z,8.74
2023-03-15T16:25:23.754Z,8.70
2023-03-15T16:27:53.746Z,8.66
2023-03-15T16:30:25.608Z,8.65
2023-03-15T16:32:56.061Z,8.63
2023-03-15T16:35:28.345Z,8.63
2023-03-15T16:38:02.278Z,8.64
2023-03-15T16:40:38.132Z,8.62
2023-03-15T16:43:09.302Z,8.61
2023-03-15T16:45:39.052Z,8.60
2023-03-15T16:48:09.119Z,8.61
2023-03-15T16:50:39.719Z,8.61
2023-03-15T16:53:15.701Z,8.60
2023-03-15T16:55:46.288Z,8.60
2023-03-15T16:58:22.685Z,8.57
2023-03-15T17:00:52.424Z,8.56
2023-03-15T17:03:22.167Z,8.55
2023-03-15T17:05:52.694Z,8.54
2023-03-15T17:08:28.040Z,8.52
2023-03-15T17:10:57.813Z,8.50
2023-03-15T17:13:32.227Z,8.51
2023-03-15T17:16:02.137Z,8.55
2023-03-15T17:18:37.110Z,8.55
2023-03-15T17:21:09.248Z,8.52
2023-03-15T17:23:42.483Z,8.52
2023-03-15T17:26:15.440Z,8.50
2023-03-15T17:28:48.317Z,8.48
2023-03-15T17:31:24.860Z,8.48
2023-03-15T17:33:55.375Z,8.49
2023-03-15T17:36:26.574Z,8.49
2023-03-15T17:38:59.860Z,8.48
2023-03-15T17:41:32.220Z,8.47
2023-03-15T17:44:02.509Z,8.45
2023-03-15T17:46:33.403Z,8.43
2023-03-15T17:49:05.055Z,8.38
2023-03-15T17:51:37.677Z,8.35
2023-03-15T17:54:17.006Z,8.33
2023-03-15T17:56:47.283Z,8.28
2023-03-15T17:59:17.880Z,8.24
2023-03-15T18:01:49.005Z,8.20
2023-03-15T18:04:19.098Z,8.14
2023-03-15T18:06:48.858Z,8.08
2023-03-15T18:09:22.379Z,8.04
2023-03-15T18:11:53.203Z,8.01
2023-03-15T18:14:22.999Z,7.94
2023-03-15T18:16:53.566Z,7.91
2023-03-15T18:19:23.717Z,7.87
2023-03-15T18:21:53.488Z,7.80
2023-03-15T18:24:25.944Z,7.76
2023-03-15T18:26:55.690Z,7.71
2023-03-15T18:29:27.839Z,7.66
2023-03-15T18:31:57.716Z,7.61
2023-03-15T18:34:27.522Z,7.54
2023-03-15T18:36:57.315Z,7.49
2023-03-15T18:39:32.826Z,7.41
2023-03-15T18:42:02.615Z,7.34
2023-03-15T18:44:32.361Z,7.27
2023-03-15T18:47:02.233Z,7.20
2023-03-15T18:49:32.751Z,7.14
2023-03-15T18:52:02.495Z,7.08
2023-03-15T18:54:34.988Z,7.02
2023-03-15T18:57:04.805Z,6.97
2023-03-15T18:59:34.549Z,6.91
2023-03-15T19:02:05.063Z,6.88
2023-03-15T19:04:34.872Z,6.83
2023-03-15T19:07:04.623Z,6.78
2023-03-15T19:09:36.991Z,6.74
2023-03-15T19:12:06.950Z,6.70
2023-03-15T19:14:36.716Z,6.66
2023-03-15T19:17:06.560Z,6.63
2023-03-15T19:19:36.355Z,6.60
2023-03-15T19:22:06.104Z,6.57
2023-03-15T19:24:39.110Z,6.54
2023-03-15T19:27:08.878Z,6.49
2023-03-15T19:29:38.845Z,6.46
2023-03-15T19:32:09.304Z,6.41
2023-03-15T19:34:39.077Z,6.38
2023-03-15T19:37:08.996Z,6.33
2023-03-15T19:39:42.558Z,6.28
2023-03-15T19:42:12.342Z,6.23
2023-03-15T19:44:43.725Z,6.17
2023-03-15T19:47:13.489Z,6.12
2023-03-15T19:49:43.329Z,6.11
2023-03-15T19:52:15.841Z,6.08
2023-03-15T19:54:49.045Z,6.04
2023-03-15T19:57:18.857Z,5.99
2023-03-15T19:59:49.825Z,5.98
2023-03-15T20:02:19.887Z,5.96
2023-03-15T20:04:49.761Z,5.92
2023-03-15T20:07:20.102Z,5.86
2023-03-15T20:09:53.918Z,5.81
2023-03-15T20:12:23.695Z,5.69
2023-03-15T20:14:53.430Z,5.60
2023-03-15T20:17:28.288Z,5.58
2023-03-15T20:20:10.440Z,5.54
2023-03-15T20:22:41.503Z,5.52
2023-03-15T20:25:16.161Z,5.44
2023-03-15T20:27:46.297Z,5.38
2023-03-15T20:30:18.227Z,5.33
2023-03-15T20:32:48.172Z,5.29
2023-03-15T20:35:17.961Z,5.28
2023-03-15T20:37:48.131Z,5.27
2023-03-15T20:40:21.262Z,5.26
2023-03-15T20:42:55.117Z,5.24
2023-03-15T20:45:24.891Z,5.20
2023-03-15T20:47:54.624Z,5.19
2023-03-15T20:50:24.682Z,5.17
2023-03-15T20:52:54.625Z,5.16
2023-03-15T20:55:27.004Z,5.14
2023-03-15T20:57:56.776Z,5.13
2023-03-15T21:00:27.302Z,5.13
2023-03-15T21:02:57.142Z,5.12
2023-03-15T21:05:28.031Z,5.12
2023-03-15T21:07:57.864Z,5.12
2023-03-15T21:10:30.278Z,5.16
2023-03-15T21:13:00.034Z,5.19
2023-03-15T21:15:29.901Z,5.22
2023-03-15T21:17:59.657Z,5.25
2023-03-15T21:20:29.514Z,5.25
2023-03-15T21:22:59.300Z,5.25
2023-03-15T21:25:36.235Z,5.25
2023-03-15T21:28:06.250Z,5.24
2023-03-15T21:30:36.700Z,5.25
2023-03-15T21:33:06.655Z,5.24
2023-03-15T21:35:37.267Z,5.26
2023-03-15T21:38:07.058Z,5.27
2023-03-15T21:40:39.491Z,5.28
2023-03-15T21:43:09.620Z,5.31
2023-03-15T21:45:41.811Z,5.32
2023-03-15T21:48:11.886Z,5.31
2023-03-15T21:50:41.674Z,5.28
2023-03-15T21:53:11.461Z,5.25
2023-03-15T21:55:46.319Z,5.21
2023-03-15T21:58:16.355Z,5.15
2023-03-15T22:00:46.187Z,5.13
2023-03-15T22:03:16.872Z,5.09
2023-03-15T22:05:48.436Z,5.08
2023-03-15T22:08:18.279Z,5.07
2023-03-15T22:10:53.519Z,5.04
2023-03-15T22:16:22.200Z,4.98
2023-03-15T22:18:56.117Z,4.99
2023-03-15T22:21:25.971Z,4.99
2023-03-15T22:23:55.710Z,4.98
2023-03-15T22:26:28.228Z,4.98
2023-03-15T22:28:57.986Z,4.98
2023-03-15T22:31:31.419Z,4.97
2023-03-15T22:34:03.039Z,4.95
2023-03-15T22:36:35.364Z,4.94
2023-03-15T22:39:06.250Z,4.93
2023-03-15T22:41:39.020Z,4.92
2023-03-15T22:44:08.996Z,4.90
2023-03-15T22:46:38.887Z,4.89
2023-03-15T22:49:08.640Z,4.92
2023-03-15T22:51:40.484Z,4.93
2023-03-15T22:54:10.300Z,4.95
2023-03-15T22:56:43.476Z,4.98
2023-03-15T22:59:13.237Z,4.99
2023-03-15T23:01:43.019Z,5.02
2023-03-15T23:04:12.909Z,5.05
2023-03-15T23:06:42.729Z,5.08
2023-03-15T23:09:12.487Z,5.10
2023-03-15T23:11:45.626Z,5.13
2023-03-15T23:14:15.387Z,5.14
2023-03-15T23:16:45.459Z,5.16
2023-03-15T23:19:16.143Z,5.18
2023-03-15T23:21:45.903Z,5.22
2023-03-15T23:24:18.851Z,5.25
2023-03-15T23:26:56.546Z,5.26
2023-03-15T23:29:26.334Z,5.25
2023-03-15T23:31:56.170Z,5.27
2023-03-15T23:34:27.647Z,5.28
2023-03-15T23:42:59.363Z,5.31
2023-03-15T23:45:30.945Z,5.32
2023-03-15T23:48:02.472Z,5.34
2023-03-15T23:50:32.490Z,5.34
2023-03-15T23:53:02.260Z,5.36
2023-03-15T23:55:35.673Z,5.38
2023-03-15T23:58:08.647Z,5.39
